Wilbur Observed Data For Previous 48 Hours

Caption
Day and Hour Reservoir Elevation (behind dam)* Tailwater Elevation (below dam)* Average Hourly Discharge*
12/9/2017 2 AM EST 1,647.92 1,583.27 240
12/9/2017 3 AM EST 1,647.63 1,583.25 239
12/9/2017 4 AM EST 1,647.32 1,583.25 235
12/9/2017 5 AM EST 1,647.02 1,583.24 233
12/9/2017 6 AM EST 1,646.70 1,583.23 230
12/9/2017 7 AM EST 1,647.81 1,584.11 233
12/9/2017 8 AM EST 1,647.11 1,585.78 1,670
12/9/2017 9 AM EST 1,646.35 1,585.76 1,736
12/9/2017 10 AM EST 1,645.56 1,585.76 1,725
12/9/2017 11 AM EST 1,646.90 1,583.20 281
12/9/2017 12 PM EST 1,648.15 1,583.26 236
12/9/2017 1 PM EST 1,647.95 1,583.24 240
12/9/2017 2 PM EST 1,647.64 1,583.25 239
12/9/2017 3 PM EST 1,647.35 1,583.25 235
12/9/2017 4 PM EST 1,647.04 1,583.24 233
12/9/2017 5 PM EST 1,646.73 1,583.22 230
12/9/2017 6 PM EST 1,646.42 1,583.21 227
12/9/2017 7 PM EST 1,646.11 1,583.20 225
12/9/2017 8 PM EST 1,645.81 1,583.19 221
12/9/2017 9 PM EST 1,645.50 1,583.20 219
12/9/2017 10 PM EST 1,645.18 1,583.20 215
12/9/2017 11 PM EST 1,645.86 1,583.24 217
12/10/2017 12 AM EST 1,647.17 1,583.31 226
12/10/2017 1 AM EST 1,647.83 1,583.33 236
12/10/2017 2 AM EST 1,647.48 1,583.32 237
12/10/2017 3 AM EST 1,647.16 1,583.30 235
12/10/2017 4 AM EST 1,646.85 1,583.30 230
12/10/2017 5 AM EST 1,646.56 1,583.29 229
12/10/2017 6 AM EST 1,646.24 1,583.29 225
12/10/2017 7 AM EST 1,645.94 1,583.31 223
12/10/2017 8 AM EST 1,647.14 1,583.34 227
12/10/2017 9 AM EST 1,648.39 1,583.35 238
12/10/2017 10 AM EST 1,649.44 1,583.33 248
12/10/2017 11 AM EST 1,649.03 1,583.22 250
12/10/2017 12 PM EST 1,648.71 1,583.15 248
12/10/2017 1 PM EST 1,648.40 1,583.18 245
12/10/2017 2 PM EST 1,648.11 1,583.24 242
12/10/2017 3 PM EST 1,647.82 1,583.24 240
12/10/2017 4 PM EST 1,647.51 1,583.24 237
12/10/2017 5 PM EST 1,647.20 1,583.26 235
12/10/2017 6 PM EST 1,646.89 1,583.30 231
12/10/2017 7 PM EST 1,646.58 1,583.30 230
12/10/2017 8 PM EST 1,647.74 1,583.39 232
12/10/2017 9 PM EST 1,648.95 1,583.44 243
12/10/2017 10 PM EST 1,648.71 1,583.49 247
12/10/2017 11 PM EST 1,648.42 1,583.52 245
12/11/2017 12 AM EST 1,648.12 1,583.53 243

Elevations are in feet above sea level. Discharges are in cubic feet per second and are reported at the end of the hour.